sensor_id;sensor_type;location;lat;lon;timestamp;temperature;humidity
23102;DHT22;11720;51.214;22.574;2022-07-06T00:01:49;17.40;99.90
23102;DHT22;11720;51.214;22.574;2022-07-06T00:04:17;17.60;99.90
23102;DHT22;11720;51.214;22.574;2022-07-06T00:09:09;17.50;99.90
23102;DHT22;11720;51.214;22.574;2022-07-06T00:18:53;17.20;99.90
23102;DHT22;11720;51.214;22.574;2022-07-06T00:23:45;17.70;99.90
23102;DHT22;11720;51.214;22.574;2022-07-06T00:28:36;17.20;99.90
23102;DHT22;11720;51.214;22.574;2022-07-06T00:31:02;16.90;99.90
23102;DHT22;11720;51.214;22.574;2022-07-06T00:33:28;17.60;99.90
23102;DHT22;11720;51.214;22.574;2022-07-06T00:40:45;16.80;99.90
23102;DHT22;11720;51.214;22.574;2022-07-06T00:52:59;17.10;99.90
23102;DHT22;11720;51.214;22.574;2022-07-06T00:55:27;17.20;99.90
23102;DHT22;11720;51.214;22.574;2022-07-06T00:57:54;16.90;99.90
23102;DHT22;11720;51.214;22.574;2022-07-06T01:00:22;17.20;99.90
23102;DHT22;11720;51.214;22.574;2022-07-06T01:02:48;16.70;99.90
23102;DHT22;11720;51.214;22.574;2022-07-06T01:05:15;17.20;99.90
23102;DHT22;11720;51.214;22.574;2022-07-06T01:07:43;17.20;99.90
23102;DHT22;11720;51.214;22.574;2022-07-06T01:10:12;17.60;99.90
23102;DHT22;11720;51.214;22.574;2022-07-06T01:12:40;17.10;99.90
23102;DHT22;11720;51.214;22.574;2022-07-06T01:15:11;17.60;99.90
23102;DHT22;11720;51.214;22.574;2022-07-06T01:17:39;17.20;99.90
23102;DHT22;11720;51.214;22.574;2022-07-06T01:20:14;17.00;99.90
23102;DHT22;11720;51.214;22.574;2022-07-06T01:22:40;17.40;99.90
23102;DHT22;11720;51.214;22.574;2022-07-06T01:27:35;17.00;99.90
23102;DHT22;11720;51.214;22.574;2022-07-06T01:30:05;17.50;99.90
23102;DHT22;11720;51.214;22.574;2022-07-06T01:32:31;17.00;99.90
23102;DHT22;11720;51.214;22.574;2022-07-06T01:44:43;17.50;99.90
23102;DHT22;11720;51.214;22.574;2022-07-06T01:47:08;17.20;99.90
23102;DHT22;11720;51.214;22.574;2022-07-06T01:56:52;16.90;99.90
23102;DHT22;11720;51.214;22.574;2022-07-06T02:09:01;17.40;99.90
23102;DHT22;11720;51.214;22.574;2022-07-06T02:13:53;17.40;99.90
23102;DHT22;11720;51.214;22.574;2022-07-06T02:18:45;16.80;99.90
23102;DHT22;11720;51.214;22.574;2022-07-06T02:23:36;17.30;99.90
23102;DHT22;11720;51.214;22.574;2022-07-06T02:26:02;17.20;99.90
23102;DHT22;11720;51.214;22.574;2022-07-06T02:28:29;17.20;99.90
23102;DHT22;11720;51.214;22.574;2022-07-06T02:33:21;17.10;99.90
23102;DHT22;11720;51.214;22.574;2022-07-06T02:40:39;17.00;99.90
23102;DHT22;11720;51.214;22.574;2022-07-06T02:47:56;17.40;99.90
23102;DHT22;11720;51.214;22.574;2022-07-06T02:57:41;16.90;99.90
23102;DHT22;11720;51.214;22.574;2022-07-06T03:00:07;17.10;99.90
23102;DHT22;11720;51.214;22.574;2022-07-06T03:07:29;17.10;99.90
23102;DHT22;11720;51.214;22.574;2022-07-06T03:19:38;16.80;99.90
23102;DHT22;11720;51.214;22.574;2022-07-06T03:22:04;16.80;99.90
23102;DHT22;11720;51.214;22.574;2022-07-06T03:26:56;16.60;99.90
23102;DHT22;11720;51.214;22.574;2022-07-06T03:34:13;16.40;99.90
23102;DHT22;11720;51.214;22.574;2022-07-06T03:41:31;16.70;99.90
23102;DHT22;11720;51.214;22.574;2022-07-06T03:43:58;16.50;99.90
23102;DHT22;11720;51.214;22.574;2022-07-06T03:53:41;15.90;99.90
23102;DHT22;11720;51.214;22.574;2022-07-06T03:58:52;15.80;99.90
23102;DHT22;11720;51.214;22.574;2022-07-06T04:06:10;16.00;99.90
23102;DHT22;11720;51.214;22.574;2022-07-06T04:13:30;15.50;99.90
23102;DHT22;11720;51.214;22.574;2022-07-06T04:15:55;15.50;99.90
23102;DHT22;11720;51.214;22.574;2022-07-06T04:23:13;15.30;99.90
23102;DHT22;11720;51.214;22.574;2022-07-06T04:30:31;15.90;99.90
23102;DHT22;11720;51.214;22.574;2022-07-06T04:32:57;15.30;99.90
23102;DHT22;11720;51.214;22.574;2022-07-06T04:35:22;15.20;99.90
23102;DHT22;11720;51.214;22.574;2022-07-06T04:37:48;15.70;99.90
23102;DHT22;11720;51.214;22.574;2022-07-06T04:42:40;15.30;99.90
23102;DHT22;11720;51.214;22.574;2022-07-06T04:45:06;15.30;99.90
23102;DHT22;11720;51.214;22.574;2022-07-06T04:47:32;15.40;99.90
23102;DHT22;11720;51.214;22.574;2022-07-06T04:49:58;15.50;99.90
23102;DHT22;11720;51.214;22.574;2022-07-06T04:52:23;15.40;99.90
23102;DHT22;11720;51.214;22.574;2022-07-06T04:59:41;15.70;99.90
23102;DHT22;11720;51.214;22.574;2022-07-06T05:11:51;15.40;99.90
23102;DHT22;11720;51.214;22.574;2022-07-06T05:16:43;15.40;99.90
23102;DHT22;11720;51.214;22.574;2022-07-06T05:29:49;15.30;99.90
23102;DHT22;11720;51.214;22.574;2022-07-06T05:32:15;15.60;99.90
23102;DHT22;11720;51.214;22.574;2022-07-06T05:39:32;15.50;99.90
23102;DHT22;11720;51.214;22.574;2022-07-06T05:41:58;15.70;99.90
23102;DHT22;11720;51.214;22.574;2022-07-06T05:52:00;15.20;99.90
23102;DHT22;11720;51.214;22.574;2022-07-06T05:54:25;15.20;99.90
23102;DHT22;11720;51.214;22.574;2022-07-06T06:09:01;15.70;99.90
23102;DHT22;11720;51.214;22.574;2022-07-06T06:23:36;15.40;99.90
23102;DHT22;11720;51.214;22.574;2022-07-06T06:30:54;15.30;99.90
23102;DHT22;11720;51.214;22.574;2022-07-06T06:33:20;15.80;99.90
23102;DHT22;11720;51.214;22.574;2022-07-06T06:35:48;15.50;99.90
23102;DHT22;11720;51.214;22.574;2022-07-06T06:38:15;15.60;99.90
23102;DHT22;11720;51.214;22.574;2022-07-06T06:40:41;15.60;99.90
23102;DHT22;11720;51.214;22.574;2022-07-06T06:43:07;15.60;99.90
23102;DHT22;11720;51.214;22.574;2022-07-06T06:47:59;15.50;99.90
23102;DHT22;11720;51.214;22.574;2022-07-06T06:55:17;15.80;99.90
23102;DHT22;11720;51.214;22.574;2022-07-06T06:57:43;16.00;99.90
23102;DHT22;11720;51.214;22.574;2022-07-06T07:00:09;16.00;99.90
23102;DHT22;11720;51.214;22.574;2022-07-06T07:05:02;16.40;99.90
23102;DHT22;11720;51.214;22.574;2022-07-06T07:17:12;16.00;99.90
23102;DHT22;11720;51.214;22.574;2022-07-06T07:19:39;16.30;99.90
23102;DHT22;11720;51.214;22.574;2022-07-06T07:24:30;16.20;99.90
23102;DHT22;11720;51.214;22.574;2022-07-06T07:26:56;16.30;99.90
23102;DHT22;11720;51.214;22.574;2022-07-06T07:29:22;16.40;99.90
23102;DHT22;11720;51.214;22.574;2022-07-06T07:46:24;16.30;99.90
23102;DHT22;11720;51.214;22.574;2022-07-06T07:53:41;16.10;99.90
23102;DHT22;11720;51.214;22.574;2022-07-06T07:56:07;16.50;99.90
23102;DHT22;11720;51.214;22.574;2022-07-06T08:00:59;16.50;99.90
23102;DHT22;11720;51.214;22.574;2022-07-06T08:03:26;17.10;99.90
23102;DHT22;11720;51.214;22.574;2022-07-06T08:08:18;16.80;99.90
23102;DHT22;11720;51.214;22.574;2022-07-06T08:13:10;16.80;99.90
23102;DHT22;11720;51.214;22.574;2022-07-06T08:15:36;16.80;99.90
23102;DHT22;11720;51.214;22.574;2022-07-06T08:18:02;17.00;99.90
23102;DHT22;11720;51.214;22.574;2022-07-06T08:20:28;16.80;99.90
23102;DHT22;11720;51.214;22.574;2022-07-06T08:22:55;16.80;99.90
23102;DHT22;11720;51.214;22.574;2022-07-06T08:25:21;17.00;99.90
23102;DHT22;11720;51.214;22.574;2022-07-06T08:27:46;16.80;99.90
23102;DHT22;11720;51.214;22.574;2022-07-06T08:30:12;17.40;99.90
23102;DHT22;11720;51.214;22.574;2022-07-06T08:32:41;17.00;99.90
23102;DHT22;11720;51.214;22.574;2022-07-06T08:35:08;16.80;99.90
23102;DHT22;11720;51.214;22.574;2022-07-06T08:37:34;17.20;99.90
23102;DHT22;11720;51.214;22.574;2022-07-06T08:42:35;17.40;99.90
23102;DHT22;11720;51.214;22.574;2022-07-06T08:45:05;17.30;99.90
23102;DHT22;11720;51.214;22.574;2022-07-06T08:49:58;17.40;99.90
23102;DHT22;11720;51.214;22.574;2022-07-06T08:52:24;17.00;99.90
23102;DHT22;11720;51.214;22.574;2022-07-06T08:54:50;17.60;99.90
23102;DHT22;11720;51.214;22.574;2022-07-06T08:57:17;17.60;99.90
23102;DHT22;11720;51.214;22.574;2022-07-06T08:59:42;17.40;99.90
23102;DHT22;11720;51.214;22.574;2022-07-06T09:02:10;17.30;99.90
23102;DHT22;11720;51.214;22.574;2022-07-06T09:04:36;17.30;99.90
23102;DHT22;11720;51.214;22.574;2022-07-06T09:07:03;17.30;99.90
23102;DHT22;11720;51.214;22.574;2022-07-06T09:09:29;17.50;99.90
23102;DHT22;11720;51.214;22.574;2022-07-06T09:14:25;17.10;99.90
23102;DHT22;11720;51.214;22.574;2022-07-06T09:17:04;17.30;99.90
23102;DHT22;11720;51.214;22.574;2022-07-06T09:19:31;16.90;99.90
23102;DHT22;11720;51.214;22.574;2022-07-06T09:21:58;17.60;99.90
23102;DHT22;11720;51.214;22.574;2022-07-06T09:24:23;16.90;99.90
23102;DHT22;11720;51.214;22.574;2022-07-06T09:26:51;16.80;99.90
23102;DHT22;11720;51.214;22.574;2022-07-06T09:29:18;17.70;99.90
23102;DHT22;11720;51.214;22.574;2022-07-06T09:32:00;17.30;99.90
23102;DHT22;11720;51.214;22.574;2022-07-06T09:34:43;17.30;99.90
23102;DHT22;11720;51.214;22.574;2022-07-06T09:37:10;17.20;99.90
23102;DHT22;11720;51.214;22.574;2022-07-06T09:39:36;17.10;99.90
23102;DHT22;11720;51.214;22.574;2022-07-06T09:42:03;17.10;99.90
23102;DHT22;11720;51.214;22.574;2022-07-06T09:44:34;17.10;99.90
23102;DHT22;11720;51.214;22.574;2022-07-06T09:47:04;17.10;99.90
23102;DHT22;11720;51.214;22.574;2022-07-06T09:49:30;17.20;99.90
23102;DHT22;11720;51.214;22.574;2022-07-06T09:51:58;17.10;99.90
23102;DHT22;11720;51.214;22.574;2022-07-06T09:54:24;17.10;99.90
23102;DHT22;11720;51.214;22.574;2022-07-06T09:56:50;16.80;99.90
23102;DHT22;11720;51.214;22.574;2022-07-06T09:59:18;17.10;99.90
23102;DHT22;11720;51.214;22.574;2022-07-06T10:01:45;17.10;99.90
23102;DHT22;11720;51.214;22.574;2022-07-06T10:04:12;16.70;99.90
23102;DHT22;11720;51.214;22.574;2022-07-06T10:09:06;17.60;99.90
23102;DHT22;11720;51.214;22.574;2022-07-06T10:11:37;17.90;99.90
23102;DHT22;11720;51.214;22.574;2022-07-06T10:14:05;18.80;99.90
23102;DHT22;11720;51.214;22.574;2022-07-06T10:16:31;18.40;99.90
23102;DHT22;11720;51.214;22.574;2022-07-06T10:18:57;18.70;99.90
23102;DHT22;11720;51.214;22.574;2022-07-06T10:21:24;18.80;99.90
23102;DHT22;11720;51.214;22.574;2022-07-06T10:23:51;18.70;99.90
23102;DHT22;11720;51.214;22.574;2022-07-06T10:26:17;18.60;99.90
23102;DHT22;11720;51.214;22.574;2022-07-06T10:28:44;18.40;99.90
23102;DHT22;11720;51.214;22.574;2022-07-06T10:31:10;18.40;99.90
23102;DHT22;11720;51.214;22.574;2022-07-06T10:33:37;18.60;99.90
23102;DHT22;11720;51.214;22.574;2022-07-06T10:36:04;18.70;99.90
23102;DHT22;11720;51.214;22.574;2022-07-06T10:38:34;18.80;99.90
23102;DHT22;11720;51.214;22.574;2022-07-06T10:41:05;18.90;99.90
23102;DHT22;11720;51.214;22.574;2022-07-06T10:43:42;19.20;99.90
23102;DHT22;11720;51.214;22.574;2022-07-06T10:46:18;19.70;99.90
23102;DHT22;11720;51.214;22.574;2022-07-06T10:48:48;19.80;99.90
23102;DHT22;11720;51.214;22.574;2022-07-06T10:51:34;20.00;99.90
23102;DHT22;11720;51.214;22.574;2022-07-06T10:54:05;20.40;99.90
23102;DHT22;11720;51.214;22.574;2022-07-06T10:56:39;20.10;99.90
23102;DHT22;11720;51.214;22.574;2022-07-06T10:59:21;20.20;99.90
23102;DHT22;11720;51.214;22.574;2022-07-06T11:04:46;19.90;99.90
23102;DHT22;11720;51.214;22.574;2022-07-06T11:07:17;19.60;99.90
23102;DHT22;11720;51.214;22.574;2022-07-06T11:10:09;19.70;99.90
23102;DHT22;11720;51.214;22.574;2022-07-06T11:12:35;19.40;99.90
23102;DHT22;11720;51.214;22.574;2022-07-06T11:15:01;19.50;99.90
23102;DHT22;11720;51.214;22.574;2022-07-06T11:17:27;19.50;99.90
23102;DHT22;11720;51.214;22.574;2022-07-06T11:19:59;19.50;99.90
23102;DHT22;11720;51.214;22.574;2022-07-06T11:22:36;19.40;99.90
23102;DHT22;11720;51.214;22.574;2022-07-06T11:25:03;19.20;99.90
23102;DHT22;11720;51.214;22.574;2022-07-06T11:27:30;19.20;99.90
23102;DHT22;11720;51.214;22.574;2022-07-06T11:29:55;19.30;99.90
23102;DHT22;11720;51.214;22.574;2022-07-06T11:32:27;19.60;99.90
23102;DHT22;11720;51.214;22.574;2022-07-06T11:34:54;19.90;99.90
23102;DHT22;11720;51.214;22.574;2022-07-06T11:37:19;20.20;99.90
23102;DHT22;11720;51.214;22.574;2022-07-06T11:39:47;20.50;99.90
23102;DHT22;11720;51.214;22.574;2022-07-06T11:42:15;20.70;99.90
23102;DHT22;11720;51.214;22.574;2022-07-06T11:44:45;20.70;99.90
23102;DHT22;11720;51.214;22.574;2022-07-06T11:47:12;20.60;99.90
23102;DHT22;11720;51.214;22.574;2022-07-06T11:49:39;20.60;99.90
23102;DHT22;11720;51.214;22.574;2022-07-06T11:52:08;20.60;99.90
23102;DHT22;11720;51.214;22.574;2022-07-06T11:54:34;20.90;99.90
23102;DHT22;11720;51.214;22.574;2022-07-06T11:57:00;20.80;99.90
23102;DHT22;11720;51.214;22.574;2022-07-06T11:59:31;20.90;99.90
23102;DHT22;11720;51.214;22.574;2022-07-06T12:02:06;21.20;99.90
23102;DHT22;11720;51.214;22.574;2022-07-06T12:04:34;21.50;99.90
23102;DHT22;11720;51.214;22.574;2022-07-06T12:07:18;21.50;99.90
23102;DHT22;11720;51.214;22.574;2022-07-06T12:09:45;21.50;99.90
23102;DHT22;11720;51.214;22.574;2022-07-06T12:12:12;21.60;99.90
23102;DHT22;11720;51.214;22.574;2022-07-06T12:14:40;21.70;99.90
23102;DHT22;11720;51.214;22.574;2022-07-06T12:17:14;21.70;99.90
23102;DHT22;11720;51.214;22.574;2022-07-06T12:19:41;21.40;99.90
23102;DHT22;11720;51.214;22.574;2022-07-06T12:22:08;21.00;99.90
23102;DHT22;11720;51.214;22.574;2022-07-06T12:24:35;20.80;99.90
23102;DHT22;11720;51.214;22.574;2022-07-06T12:27:15;20.70;99.90
23102;DHT22;11720;51.214;22.574;2022-07-06T12:29:41;20.80;99.90
23102;DHT22;11720;51.214;22.574;2022-07-06T12:32:13;20.80;99.90
23102;DHT22;11720;51.214;22.574;2022-07-06T12:34:39;21.00;99.90
23102;DHT22;11720;51.214;22.574;2022-07-06T12:37:08;21.10;99.90
23102;DHT22;11720;51.214;22.574;2022-07-06T12:39:46;21.20;99.90
23102;DHT22;11720;51.214;22.574;2022-07-06T12:42:14;21.30;99.90
23102;DHT22;11720;51.214;22.574;2022-07-06T12:45:00;21.20;99.90
23102;DHT22;11720;51.214;22.574;2022-07-06T12:47:25;21.20;99.90
23102;DHT22;11720;51.214;22.574;2022-07-06T12:50:05;21.10;99.90
23102;DHT22;11720;51.214;22.574;2022-07-06T12:52:31;20.90;99.90
23102;DHT22;11720;51.214;22.574;2022-07-06T12:54:59;20.90;99.90
23102;DHT22;11720;51.214;22.574;2022-07-06T12:57:25;20.90;99.90
23102;DHT22;11720;51.214;22.574;2022-07-06T12:59:57;20.80;99.90
23102;DHT22;11720;51.214;22.574;2022-07-06T13:02:30;20.80;99.90
23102;DHT22;11720;51.214;22.574;2022-07-06T13:07:22;20.70;99.90
23102;DHT22;11720;51.214;22.574;2022-07-06T13:12:14;21.00;99.90
23102;DHT22;11720;51.214;22.574;2022-07-06T13:14:39;21.20;99.90
23102;DHT22;11720;51.214;22.574;2022-07-06T13:19:31;21.80;99.90
23102;DHT22;11720;51.214;22.574;2022-07-06T13:21:57;21.90;99.90
23102;DHT22;11720;51.214;22.574;2022-07-06T13:24:22;21.90;99.90
23102;DHT22;11720;51.214;22.574;2022-07-06T13:26:48;21.90;99.90
23102;DHT22;11720;51.214;22.574;2022-07-06T13:29:14;22.00;99.90
23102;DHT22;11720;51.214;22.574;2022-07-06T13:31:40;22.10;99.90
23102;DHT22;11720;51.214;22.574;2022-07-06T13:34:07;22.10;99.90
23102;DHT22;11720;51.214;22.574;2022-07-06T13:36:34;22.20;99.90
23102;DHT22;11720;51.214;22.574;2022-07-06T13:38:59;22.40;99.90
23102;DHT22;11720;51.214;22.574;2022-07-06T13:41:25;22.50;99.90
23102;DHT22;11720;51.214;22.574;2022-07-06T13:43:51;22.60;99.90
23102;DHT22;11720;51.214;22.574;2022-07-06T13:46:16;22.60;99.90
23102;DHT22;11720;51.214;22.574;2022-07-06T13:48:42;22.60;99.90
23102;DHT22;11720;51.214;22.574;2022-07-06T13:51:08;22.50;99.90
23102;DHT22;11720;51.214;22.574;2022-07-06T13:53:34;22.40;99.70
23102;DHT22;11720;51.214;22.574;2022-07-06T13:56:00;22.50;99.90
23102;DHT22;11720;51.214;22.574;2022-07-06T13:58:25;22.60;99.90
23102;DHT22;11720;51.214;22.574;2022-07-06T14:00:51;22.60;99.90
23102;DHT22;11720;51.214;22.574;2022-07-06T14:03:17;22.50;99.00
23102;DHT22;11720;51.214;22.574;2022-07-06T14:05:42;22.60;98.80
23102;DHT22;11720;51.214;22.574;2022-07-06T14:08:08;22.60;99.30
23102;DHT22;11720;51.214;22.574;2022-07-06T14:10:34;22.40;99.50
23102;DHT22;11720;51.214;22.574;2022-07-06T14:13:00;22.10;99.90
23102;DHT22;11720;51.214;22.574;2022-07-06T14:15:25;21.80;99.90
23102;DHT22;11720;51.214;22.574;2022-07-06T14:17:51;21.70;99.90
23102;DHT22;11720;51.214;22.574;2022-07-06T14:20:17;21.60;99.90
23102;DHT22;11720;51.214;22.574;2022-07-06T14:22:44;21.60;99.90
23102;DHT22;11720;51.214;22.574;2022-07-06T14:25:10;21.70;98.70
23102;DHT22;11720;51.214;22.574;2022-07-06T14:27:36;21.80;98.40
23102;DHT22;11720;51.214;22.574;2022-07-06T14:30:03;21.90;96.40
23102;DHT22;11720;51.214;22.574;2022-07-06T14:32:29;21.90;95.30
23102;DHT22;11720;51.214;22.574;2022-07-06T14:34:54;21.70;98.70
23102;DHT22;11720;51.214;22.574;2022-07-06T14:37:20;21.70;97.50
23102;DHT22;11720;51.214;22.574;2022-07-06T14:39:45;21.70;98.10
23102;DHT22;11720;51.214;22.574;2022-07-06T14:42:12;21.90;97.50
23102;DHT22;11720;51.214;22.574;2022-07-06T14:44:38;22.20;95.30
23102;DHT22;11720;51.214;22.574;2022-07-06T14:47:03;22.20;97.80
23102;DHT22;11720;51.214;22.574;2022-07-06T14:49:30;22.20;98.30
23102;DHT22;11720;51.214;22.574;2022-07-06T14:51:56;22.10;98.10
23102;DHT22;11720;51.214;22.574;2022-07-06T14:54:23;21.90;99.00
23102;DHT22;11720;51.214;22.574;2022-07-06T14:56:49;21.90;98.00
23102;DHT22;11720;51.214;22.574;2022-07-06T14:59:15;22.00;97.40
23102;DHT22;11720;51.214;22.574;2022-07-06T15:01:40;22.20;97.10
23102;DHT22;11720;51.214;22.574;2022-07-06T15:04:06;22.20;96.90
23102;DHT22;11720;51.214;22.574;2022-07-06T15:06:32;22.20;98.20
23102;DHT22;11720;51.214;22.574;2022-07-06T15:08:58;22.10;97.60
23102;DHT22;11720;51.214;22.574;2022-07-06T15:11:23;22.10;99.40
23102;DHT22;11720;51.214;22.574;2022-07-06T15:13:49;22.10;97.50
23102;DHT22;11720;51.214;22.574;2022-07-06T15:16:14;22.30;97.20
23102;DHT22;11720;51.214;22.574;2022-07-06T15:18:40;22.50;97.00
23102;DHT22;11720;51.214;22.574;2022-07-06T15:21:05;22.60;93.70
23102;DHT22;11720;51.214;22.574;2022-07-06T15:23:31;22.80;96.30
23102;DHT22;11720;51.214;22.574;2022-07-06T15:25:57;23.10;94.50
23102;DHT22;11720;51.214;22.574;2022-07-06T15:28:23;23.40;92.70
23102;DHT22;11720;51.214;22.574;2022-07-06T15:30:52;23.50;91.60
23102;DHT22;11720;51.214;22.574;2022-07-06T15:33:18;23.70;90.20
23102;DHT22;11720;51.214;22.574;2022-07-06T15:35:43;23.50;90.90
23102;DHT22;11720;51.214;22.574;2022-07-06T15:38:09;23.40;88.20
23102;DHT22;11720;51.214;22.574;2022-07-06T15:40:35;23.40;90.40
23102;DHT22;11720;51.214;22.574;2022-07-06T15:43:10;23.30;89.60
23102;DHT22;11720;51.214;22.574;2022-07-06T15:45:36;23.40;87.00
23102;DHT22;11720;51.214;22.574;2022-07-06T15:48:03;23.60;88.70
23102;DHT22;11720;51.214;22.574;2022-07-06T15:50:29;23.90;88.70
23102;DHT22;11720;51.214;22.574;2022-07-06T15:52:55;24.10;84.70
23102;DHT22;11720;51.214;22.574;2022-07-06T15:55:20;24.10;87.40
23102;DHT22;11720;51.214;22.574;2022-07-06T15:57:47;24.20;87.40
23102;DHT22;11720;51.214;22.574;2022-07-06T16:00:13;24.30;82.90
23102;DHT22;11720;51.214;22.574;2022-07-06T16:02:39;24.30;83.20
23102;DHT22;11720;51.214;22.574;2022-07-06T16:05:05;24.40;80.80
23102;DHT22;11720;51.214;22.574;2022-07-06T16:07:32;24.20;82.50
23102;DHT22;11720;51.214;22.574;2022-07-06T16:09:58;24.30;81.20
23102;DHT22;11720;51.214;22.574;2022-07-06T16:12:24;24.30;76.50
23102;DHT22;11720;51.214;22.574;2022-07-06T16:14:50;24.50;75.20
23102;DHT22;11720;51.214;22.574;2022-07-06T16:17:16;24.50;76.50
23102;DHT22;11720;51.214;22.574;2022-07-06T16:19:42;24.60;76.70
23102;DHT22;11720;51.214;22.574;2022-07-06T16:22:08;24.80;79.10
23102;DHT22;11720;51.214;22.574;2022-07-06T16:24:34;25.10;74.00
23102;DHT22;11720;51.214;22.574;2022-07-06T16:27:00;25.30;73.60
23102;DHT22;11720;51.214;22.574;2022-07-06T16:29:26;25.20;74.10
23102;DHT22;11720;51.214;22.574;2022-07-06T16:31:51;25.10;73.60
23102;DHT22;11720;51.214;22.574;2022-07-06T16:34:17;25.00;71.70
23102;DHT22;11720;51.214;22.574;2022-07-06T16:36:43;24.60;72.30
23102;DHT22;11720;51.214;22.574;2022-07-06T16:39:08;24.50;71.60
23102;DHT22;11720;51.214;22.574;2022-07-06T16:41:34;24.60;73.40
23102;DHT22;11720;51.214;22.574;2022-07-06T16:44:00;24.70;71.00
23102;DHT22;11720;51.214;22.574;2022-07-06T16:46:25;25.00;71.60
23102;DHT22;11720;51.214;22.574;2022-07-06T16:48:51;25.20;70.80
23102;DHT22;11720;51.214;22.574;2022-07-06T16:51:16;25.40;68.60
23102;DHT22;11720;51.214;22.574;2022-07-06T16:53:42;25.80;69.20
23102;DHT22;11720;51.214;22.574;2022-07-06T16:56:08;25.40;68.50
23102;DHT22;11720;51.214;22.574;2022-07-06T16:58:34;25.10;68.40
23102;DHT22;11720;51.214;22.574;2022-07-06T17:00:59;24.90;70.50
23102;DHT22;11720;51.214;22.574;2022-07-06T17:03:25;24.60;71.90
23102;DHT22;11720;51.214;22.574;2022-07-06T17:05:51;24.00;72.70
23102;DHT22;11720;51.214;22.574;2022-07-06T17:08:17;23.60;72.60
23102;DHT22;11720;51.214;22.574;2022-07-06T17:10:43;23.20;72.50
23102;DHT22;11720;51.214;22.574;2022-07-06T17:13:08;22.80;73.20
23102;DHT22;11720;51.214;22.574;2022-07-06T17:15:34;22.50;72.60
23102;DHT22;11720;51.214;22.574;2022-07-06T17:18:00;22.30;73.00
23102;DHT22;11720;51.214;22.574;2022-07-06T17:20:26;22.20;76.10
23102;DHT22;11720;51.214;22.574;2022-07-06T17:22:52;22.00;76.40
23102;DHT22;11720;51.214;22.574;2022-07-06T17:25:17;21.90;77.90
23102;DHT22;11720;51.214;22.574;2022-07-06T17:27:43;21.80;77.70
23102;DHT22;11720;51.214;22.574;2022-07-06T17:30:09;21.70;78.00
23102;DHT22;11720;51.214;22.574;2022-07-06T17:32:35;21.60;79.40
23102;DHT22;11720;51.214;22.574;2022-07-06T17:35:01;21.50;80.10
23102;DHT22;11720;51.214;22.574;2022-07-06T17:37:26;21.50;81.10
23102;DHT22;11720;51.214;22.574;2022-07-06T17:39:52;21.40;81.20
23102;DHT22;11720;51.214;22.574;2022-07-06T17:42:18;21.30;83.00
23102;DHT22;11720;51.214;22.574;2022-07-06T17:44:46;21.30;87.10
23102;DHT22;11720;51.214;22.574;2022-07-06T17:47:12;21.20;84.80
23102;DHT22;11720;51.214;22.574;2022-07-06T17:49:37;21.10;84.20
23102;DHT22;11720;51.214;22.574;2022-07-06T17:52:03;21.10;85.10
23102;DHT22;11720;51.214;22.574;2022-07-06T17:54:29;21.00;85.70
23102;DHT22;11720;51.214;22.574;2022-07-06T17:56:55;20.90;89.00
23102;DHT22;11720;51.214;22.574;2022-07-06T17:59:21;20.90;87.60
23102;DHT22;11720;51.214;22.574;2022-07-06T18:01:46;20.80;89.30
23102;DHT22;11720;51.214;22.574;2022-07-06T18:04:12;20.80;93.40
23102;DHT22;11720;51.214;22.574;2022-07-06T18:06:38;20.60;92.10
23102;DHT22;11720;51.214;22.574;2022-07-06T18:09:03;20.60;92.50
23102;DHT22;11720;51.214;22.574;2022-07-06T18:11:31;20.50;96.50
23102;DHT22;11720;51.214;22.574;2022-07-06T18:13:56;20.40;94.90
23102;DHT22;11720;51.214;22.574;2022-07-06T18:16:27;20.40;93.90
23102;DHT22;11720;51.214;22.574;2022-07-06T18:18:53;20.30;94.40
23102;DHT22;11720;51.214;22.574;2022-07-06T18:21:19;20.30;94.70
23102;DHT22;11720;51.214;22.574;2022-07-06T18:23:44;20.20;94.50
23102;DHT22;11720;51.214;22.574;2022-07-06T18:26:11;20.30;98.30
23102;DHT22;11720;51.214;22.574;2022-07-06T18:28:37;20.20;98.70
23102;DHT22;11720;51.214;22.574;2022-07-06T18:31:03;20.10;98.30
23102;DHT22;11720;51.214;22.574;2022-07-06T18:33:29;20.10;99.70
23102;DHT22;11720;51.214;22.574;2022-07-06T18:35:56;20.00;99.90
23102;DHT22;11720;51.214;22.574;2022-07-06T18:38:22;19.90;99.90
23102;DHT22;11720;51.214;22.574;2022-07-06T18:40:48;19.70;99.90
23102;DHT22;11720;51.214;22.574;2022-07-06T18:43:14;19.60;99.90
23102;DHT22;11720;51.214;22.574;2022-07-06T18:45:44;19.50;99.90
23102;DHT22;11720;51.214;22.574;2022-07-06T18:48:12;19.40;99.90
23102;DHT22;11720;51.214;22.574;2022-07-06T18:50:41;19.30;99.90
23102;DHT22;11720;51.214;22.574;2022-07-06T18:53:08;19.30;99.90
23102;DHT22;11720;51.214;22.574;2022-07-06T18:55:34;19.20;99.90
23102;DHT22;11720;51.214;22.574;2022-07-06T18:58:00;19.10;99.90
23102;DHT22;11720;51.214;22.574;2022-07-06T19:00:26;19.10;99.90
23102;DHT22;11720;51.214;22.574;2022-07-06T19:02:52;19.10;99.90
23102;DHT22;11720;51.214;22.574;2022-07-06T19:05:17;19.00;99.90
23102;DHT22;11720;51.214;22.574;2022-07-06T19:07:43;19.00;99.90
23102;DHT22;11720;51.214;22.574;2022-07-06T19:10:09;19.00;99.90
23102;DHT22;11720;51.214;22.574;2022-07-06T19:12:37;19.00;99.90
23102;DHT22;11720;51.214;22.574;2022-07-06T19:15:04;18.90;99.90
23102;DHT22;11720;51.214;22.574;2022-07-06T19:17:29;18.90;99.90
23102;DHT22;11720;51.214;22.574;2022-07-06T19:20:00;18.90;99.90
23102;DHT22;11720;51.214;22.574;2022-07-06T19:22:25;18.90;99.90
23102;DHT22;11720;51.214;22.574;2022-07-06T19:24:51;18.80;99.90
23102;DHT22;11720;51.214;22.574;2022-07-06T19:27:16;18.80;99.90
23102;DHT22;11720;51.214;22.574;2022-07-06T19:29:42;18.80;99.90
23102;DHT22;11720;51.214;22.574;2022-07-06T19:32:08;18.70;99.90
23102;DHT22;11720;51.214;22.574;2022-07-06T19:34:33;18.70;99.90
23102;DHT22;11720;51.214;22.574;2022-07-06T19:36:59;18.60;99.90
23102;DHT22;11720;51.214;22.574;2022-07-06T19:39:25;18.60;99.90
23102;DHT22;11720;51.214;22.574;2022-07-06T19:41:53;18.60;99.90
23102;DHT22;11720;51.214;22.574;2022-07-06T19:44:18;18.50;99.90
23102;DHT22;11720;51.214;22.574;2022-07-06T19:46:44;18.50;99.90
23102;DHT22;11720;51.214;22.574;2022-07-06T19:49:11;18.40;99.90
23102;DHT22;11720;51.214;22.574;2022-07-06T19:51:37;18.40;99.90
23102;DHT22;11720;51.214;22.574;2022-07-06T19:54:02;18.30;99.90
23102;DHT22;11720;51.214;22.574;2022-07-06T19:56:28;18.30;99.90